sensor_id;sensor_type;location;lat;lon;timestamp;P1;durP1;ratioP1;P2;durP2;ratioP2
47483;SDS011;54076;50.322;18.650;2023-04-15T00:04:23;10.30;;;5.60;;
47483;SDS011;54076;50.322;18.650;2023-04-15T00:09:23;10.10;;;5.40;;
47483;SDS011;54076;50.322;18.650;2023-04-15T00:14:24;11.20;;;5.40;;
47483;SDS011;54076;50.322;18.650;2023-04-15T00:19:26;10.60;;;5.40;;
47483;SDS011;54076;50.322;18.650;2023-04-15T00:24:27;10.70;;;5.90;;
47483;SDS011;54076;50.322;18.650;2023-04-15T00:29:29;8.70;;;5.30;;
47483;SDS011;54076;50.322;18.650;2023-04-15T00:34:30;10.70;;;5.10;;
47483;SDS011;54076;50.322;18.650;2023-04-15T00:39:32;10.20;;;5.40;;
47483;SDS011;54076;50.322;18.650;2023-04-15T00:44:33;12.40;;;5.60;;
47483;SDS011;54076;50.322;18.650;2023-04-15T00:49:34;13.20;;;6.20;;
47483;SDS011;54076;50.322;18.650;2023-04-15T00:54:35;12.90;;;5.90;;
47483;SDS011;54076;50.322;18.650;2023-04-15T00:59:37;11.90;;;5.00;;
47483;SDS011;54076;50.322;18.650;2023-04-15T01:04:38;13.40;;;5.90;;
47483;SDS011;54076;50.322;18.650;2023-04-15T01:09:39;15.50;;;6.20;;
47483;SDS011;54076;50.322;18.650;2023-04-15T01:14:41;15.00;;;6.60;;
47483;SDS011;54076;50.322;18.650;2023-04-15T01:19:42;15.10;;;6.60;;
47483;SDS011;54076;50.322;18.650;2023-04-15T01:24:50;15.10;;;6.20;;
47483;SDS011;54076;50.322;18.650;2023-04-15T01:30:00;14.60;;;5.90;;
47483;SDS011;54076;50.322;18.650;2023-04-15T01:35:05;13.40;;;5.90;;
47483;SDS011;54076;50.322;18.650;2023-04-15T01:40:07;14.20;;;6.10;;
47483;SDS011;54076;50.322;18.650;2023-04-15T01:45:09;13.00;;;5.80;;
47483;SDS011;54076;50.322;18.650;2023-04-15T01:50:11;13.00;;;5.40;;
47483;SDS011;54076;50.322;18.650;2023-04-15T01:55:13;16.10;;;6.10;;
47483;SDS011;54076;50.322;18.650;2023-04-15T02:00:14;15.10;;;6.00;;
47483;SDS011;54076;50.322;18.650;2023-04-15T02:05:16;15.00;;;6.80;;
47483;SDS011;54076;50.322;18.650;2023-04-15T02:10:17;13.50;;;5.90;;
47483;SDS011;54076;50.322;18.650;2023-04-15T02:15:18;10.00;;;5.00;;
47483;SDS011;54076;50.322;18.650;2023-04-15T02:20:20;13.80;;;6.00;;
47483;SDS011;54076;50.322;18.650;2023-04-15T02:25:21;12.20;;;5.30;;
47483;SDS011;54076;50.322;18.650;2023-04-15T02:30:22;10.90;;;4.90;;
47483;SDS011;54076;50.322;18.650;2023-04-15T02:35:25;12.20;;;5.90;;
47483;SDS011;54076;50.322;18.650;2023-04-15T02:40:26;13.40;;;6.00;;
47483;SDS011;54076;50.322;18.650;2023-04-15T02:45:27;17.10;;;7.30;;
47483;SDS011;54076;50.322;18.650;2023-04-15T02:50:28;19.10;;;8.10;;
47483;SDS011;54076;50.322;18.650;2023-04-15T02:55:31;24.10;;;9.00;;
47483;SDS011;54076;50.322;18.650;2023-04-15T03:00:32;21.00;;;9.30;;
47483;SDS011;54076;50.322;18.650;2023-04-15T03:05:33;22.20;;;9.10;;
47483;SDS011;54076;50.322;18.650;2023-04-15T03:10:34;21.80;;;9.00;;
47483;SDS011;54076;50.322;18.650;2023-04-15T03:15:35;19.40;;;8.60;;
47483;SDS011;54076;50.322;18.650;2023-04-15T03:20:36;14.20;;;6.90;;
47483;SDS011;54076;50.322;18.650;2023-04-15T03:25:37;15.80;;;7.40;;
47483;SDS011;54076;50.322;18.650;2023-04-15T03:30:38;17.10;;;6.80;;
47483;SDS011;54076;50.322;18.650;2023-04-15T03:35:39;17.30;;;7.20;;
47483;SDS011;54076;50.322;18.650;2023-04-15T03:40:40;16.50;;;6.70;;
47483;SDS011;54076;50.322;18.650;2023-04-15T03:45:41;15.80;;;6.90;;
47483;SDS011;54076;50.322;18.650;2023-04-15T03:50:42;17.00;;;6.80;;
47483;SDS011;54076;50.322;18.650;2023-04-15T03:55:43;16.40;;;7.00;;
47483;SDS011;54076;50.322;18.650;2023-04-15T04:00:44;16.80;;;6.70;;
47483;SDS011;54076;50.322;18.650;2023-04-15T04:05:45;13.70;;;6.70;;
47483;SDS011;54076;50.322;18.650;2023-04-15T04:10:47;15.10;;;5.80;;
47483;SDS011;54076;50.322;18.650;2023-04-15T04:15:48;13.60;;;6.30;;
47483;SDS011;54076;50.322;18.650;2023-04-15T04:20:49;15.60;;;6.40;;
47483;SDS011;54076;50.322;18.650;2023-04-15T04:25:50;12.80;;;6.00;;
47483;SDS011;54076;50.322;18.650;2023-04-15T04:30:52;13.40;;;6.10;;
47483;SDS011;54076;50.322;18.650;2023-04-15T04:35:53;14.90;;;5.70;;
47483;SDS011;54076;50.322;18.650;2023-04-15T04:40:54;15.40;;;6.50;;
47483;SDS011;54076;50.322;18.650;2023-04-15T04:45:55;16.40;;;6.10;;
47483;SDS011;54076;50.322;18.650;2023-04-15T04:50:56;16.90;;;6.50;;
47483;SDS011;54076;50.322;18.650;2023-04-15T04:55:58;16.50;;;5.90;;
47483;SDS011;54076;50.322;18.650;2023-04-15T05:00:59;12.40;;;5.50;;
47483;SDS011;54076;50.322;18.650;2023-04-15T05:06:00;15.50;;;6.00;;
47483;SDS011;54076;50.322;18.650;2023-04-15T05:11:02;13.00;;;5.60;;
47483;SDS011;54076;50.322;18.650;2023-04-15T05:16:04;16.00;;;6.50;;
47483;SDS011;54076;50.322;18.650;2023-04-15T05:21:06;13.00;;;6.00;;
47483;SDS011;54076;50.322;18.650;2023-04-15T05:26:07;15.90;;;6.40;;
47483;SDS011;54076;50.322;18.650;2023-04-15T05:31:08;16.30;;;6.50;;
47483;SDS011;54076;50.322;18.650;2023-04-15T05:36:09;16.40;;;6.60;;
47483;SDS011;54076;50.322;18.650;2023-04-15T05:41:11;20.30;;;8.00;;
47483;SDS011;54076;50.322;18.650;2023-04-15T05:46:12;24.20;;;9.00;;
47483;SDS011;54076;50.322;18.650;2023-04-15T05:51:13;20.00;;;7.90;;
47483;SDS011;54076;50.322;18.650;2023-04-15T05:56:14;14.90;;;6.90;;
47483;SDS011;54076;50.322;18.650;2023-04-15T06:01:15;18.70;;;7.00;;
47483;SDS011;54076;50.322;18.650;2023-04-15T06:06:16;11.30;;;5.50;;
47483;SDS011;54076;50.322;18.650;2023-04-15T06:11:19;13.90;;;5.70;;
47483;SDS011;54076;50.322;18.650;2023-04-15T06:16:21;11.20;;;4.60;;
47483;SDS011;54076;50.322;18.650;2023-04-15T06:21:23;10.90;;;4.90;;
47483;SDS011;54076;50.322;18.650;2023-04-15T06:26:24;12.50;;;5.30;;
47483;SDS011;54076;50.322;18.650;2023-04-15T06:31:25;8.90;;;4.00;;
47483;SDS011;54076;50.322;18.650;2023-04-15T06:36:26;11.00;;;5.00;;
47483;SDS011;54076;50.322;18.650;2023-04-15T06:41:27;10.00;;;4.80;;
47483;SDS011;54076;50.322;18.650;2023-04-15T06:46:28;8.90;;;4.60;;
47483;SDS011;54076;50.322;18.650;2023-04-15T06:51:29;8.40;;;3.80;;
47483;SDS011;54076;50.322;18.650;2023-04-15T06:56:32;7.90;;;3.90;;
47483;SDS011;54076;50.322;18.650;2023-04-15T07:01:33;7.40;;;3.50;;
47483;SDS011;54076;50.322;18.650;2023-04-15T07:06:34;7.80;;;3.40;;
47483;SDS011;54076;50.322;18.650;2023-04-15T07:11:35;7.30;;;3.20;;
47483;SDS011;54076;50.322;18.650;2023-04-15T07:16:36;7.50;;;3.60;;
47483;SDS011;54076;50.322;18.650;2023-04-15T07:21:37;6.20;;;2.60;;
47483;SDS011;54076;50.322;18.650;2023-04-15T07:26:38;7.00;;;2.60;;
47483;SDS011;54076;50.322;18.650;2023-04-15T07:31:39;6.40;;;2.80;;
47483;SDS011;54076;50.322;18.650;2023-04-15T07:36:42;9.90;;;4.20;;
47483;SDS011;54076;50.322;18.650;2023-04-15T07:41:43;8.20;;;3.70;;
47483;SDS011;54076;50.322;18.650;2023-04-15T07:46:44;10.20;;;5.10;;
47483;SDS011;54076;50.322;18.650;2023-04-15T07:51:45;9.70;;;3.50;;
47483;SDS011;54076;50.322;18.650;2023-04-15T07:56:46;5.40;;;2.60;;
47483;SDS011;54076;50.322;18.650;2023-04-15T08:01:47;7.60;;;3.40;;
47483;SDS011;54076;50.322;18.650;2023-04-15T08:06:48;6.90;;;3.20;;
47483;SDS011;54076;50.322;18.650;2023-04-15T08:11:50;9.10;;;3.80;;
47483;SDS011;54076;50.322;18.650;2023-04-15T08:16:51;7.40;;;3.40;;
47483;SDS011;54076;50.322;18.650;2023-04-15T08:21:52;8.30;;;4.40;;
47483;SDS011;54076;50.322;18.650;2023-04-15T08:26:53;8.10;;;3.70;;
47483;SDS011;54076;50.322;18.650;2023-04-15T08:31:54;7.80;;;4.00;;
47483;SDS011;54076;50.322;18.650;2023-04-15T08:36:55;7.40;;;3.80;;
47483;SDS011;54076;50.322;18.650;2023-04-15T08:42:01;7.90;;;4.10;;
47483;SDS011;54076;50.322;18.650;2023-04-15T08:47:03;6.40;;;3.20;;
47483;SDS011;54076;50.322;18.650;2023-04-15T08:52:08;4.80;;;2.70;;
47483;SDS011;54076;50.322;18.650;2023-04-15T08:57:09;6.50;;;2.70;;
47483;SDS011;54076;50.322;18.650;2023-04-15T09:02:12;5.70;;;2.70;;
47483;SDS011;54076;50.322;18.650;2023-04-15T09:07:13;6.10;;;2.80;;
47483;SDS011;54076;50.322;18.650;2023-04-15T09:12:14;5.70;;;2.80;;
47483;SDS011;54076;50.322;18.650;2023-04-15T09:17:18;7.50;;;3.30;;
47483;SDS011;54076;50.322;18.650;2023-04-15T09:22:21;6.40;;;3.40;;
47483;SDS011;54076;50.322;18.650;2023-04-15T09:27:22;6.80;;;3.00;;
47483;SDS011;54076;50.322;18.650;2023-04-15T09:32:23;6.80;;;3.00;;
47483;SDS011;54076;50.322;18.650;2023-04-15T09:37:34;7.70;;;3.00;;
47483;SDS011;54076;50.322;18.650;2023-04-15T09:42:36;5.80;;;3.00;;
47483;SDS011;54076;50.322;18.650;2023-04-15T09:47:37;6.90;;;3.10;;
47483;SDS011;54076;50.322;18.650;2023-04-15T09:52:42;8.50;;;3.00;;
47483;SDS011;54076;50.322;18.650;2023-04-15T09:57:44;5.50;;;2.80;;
47483;SDS011;54076;50.322;18.650;2023-04-15T10:02:46;5.60;;;2.50;;
47483;SDS011;54076;50.322;18.650;2023-04-15T10:07:49;6.40;;;3.10;;
47483;SDS011;54076;50.322;18.650;2023-04-15T10:12:50;6.20;;;3.10;;
47483;SDS011;54076;50.322;18.650;2023-04-15T10:17:52;4.80;;;2.60;;
47483;SDS011;54076;50.322;18.650;2023-04-15T10:22:55;7.30;;;3.30;;
47483;SDS011;54076;50.322;18.650;2023-04-15T10:27:57;5.60;;;2.50;;
47483;SDS011;54076;50.322;18.650;2023-04-15T10:33:00;5.40;;;2.60;;
47483;SDS011;54076;50.322;18.650;2023-04-15T10:38:39;5.90;;;3.00;;
47483;SDS011;54076;50.322;18.650;2023-04-15T10:43:53;5.50;;;2.70;;
47483;SDS011;54076;50.322;18.650;2023-04-15T10:54:36;5.10;;;2.60;;
47483;SDS011;54076;50.322;18.650;2023-04-15T11:04:58;5.70;;;2.80;;
47483;SDS011;54076;50.322;18.650;2023-04-15T11:09:59;5.70;;;2.80;;
47483;SDS011;54076;50.322;18.650;2023-04-15T11:20:33;5.30;;;2.00;;
47483;SDS011;54076;50.322;18.650;2023-04-15T11:25:35;4.80;;;2.10;;
47483;SDS011;54076;50.322;18.650;2023-04-15T11:30:40;7.70;;;3.50;;
47483;SDS011;54076;50.322;18.650;2023-04-15T11:35:42;5.70;;;2.50;;
47483;SDS011;54076;50.322;18.650;2023-04-15T11:40:44;4.20;;;2.30;;
47483;SDS011;54076;50.322;18.650;2023-04-15T11:45:56;4.30;;;2.30;;
47483;SDS011;54076;50.322;18.650;2023-04-15T11:51:00;5.20;;;2.40;;
47483;SDS011;54076;50.322;18.650;2023-04-15T11:56:06;4.50;;;2.50;;
47483;SDS011;54076;50.322;18.650;2023-04-15T12:01:09;5.50;;;2.90;;
47483;SDS011;54076;50.322;18.650;2023-04-15T12:16:26;5.20;;;2.70;;
47483;SDS011;54076;50.322;18.650;2023-04-15T12:21:33;5.30;;;2.90;;
47483;SDS011;54076;50.322;18.650;2023-04-15T12:32:06;5.60;;;2.30;;
47483;SDS011;54076;50.322;18.650;2023-04-15T12:37:11;6.90;;;2.40;;
47483;SDS011;54076;50.322;18.650;2023-04-15T12:42:16;6.40;;;2.60;;
47483;SDS011;54076;50.322;18.650;2023-04-15T12:47:17;6.40;;;2.70;;
47483;SDS011;54076;50.322;18.650;2023-04-15T12:52:18;5.00;;;2.20;;
47483;SDS011;54076;50.322;18.650;2023-04-15T12:57:19;7.70;;;2.70;;
47483;SDS011;54076;50.322;18.650;2023-04-15T13:02:20;5.20;;;2.30;;
47483;SDS011;54076;50.322;18.650;2023-04-15T13:07:25;5.20;;;2.50;;
47483;SDS011;54076;50.322;18.650;2023-04-15T13:12:26;5.40;;;2.40;;
47483;SDS011;54076;50.322;18.650;2023-04-15T13:17:27;4.40;;;2.20;;
47483;SDS011;54076;50.322;18.650;2023-04-15T13:22:28;6.40;;;2.30;;
47483;SDS011;54076;50.322;18.650;2023-04-15T13:27:29;5.50;;;2.80;;
47483;SDS011;54076;50.322;18.650;2023-04-15T13:32:31;6.70;;;2.70;;
47483;SDS011;54076;50.322;18.650;2023-04-15T13:37:32;6.00;;;2.70;;
47483;SDS011;54076;50.322;18.650;2023-04-15T13:42:33;5.30;;;2.50;;
47483;SDS011;54076;50.322;18.650;2023-04-15T13:47:34;6.40;;;2.80;;
47483;SDS011;54076;50.322;18.650;2023-04-15T13:52:35;5.60;;;2.70;;
47483;SDS011;54076;50.322;18.650;2023-04-15T13:57:36;5.60;;;2.60;;
47483;SDS011;54076;50.322;18.650;2023-04-15T14:02:38;6.00;;;3.10;;
47483;SDS011;54076;50.322;18.650;2023-04-15T14:07:40;6.90;;;3.00;;
47483;SDS011;54076;50.322;18.650;2023-04-15T14:12:41;6.30;;;2.90;;
47483;SDS011;54076;50.322;18.650;2023-04-15T14:17:42;6.60;;;2.90;;
47483;SDS011;54076;50.322;18.650;2023-04-15T14:22:43;6.70;;;3.00;;
47483;SDS011;54076;50.322;18.650;2023-04-15T14:27:44;8.30;;;3.50;;
47483;SDS011;54076;50.322;18.650;2023-04-15T14:32:46;6.40;;;3.00;;
47483;SDS011;54076;50.322;18.650;2023-04-15T14:37:47;8.80;;;3.30;;
47483;SDS011;54076;50.322;18.650;2023-04-15T14:42:48;6.60;;;3.50;;
47483;SDS011;54076;50.322;18.650;2023-04-15T14:47:49;6.90;;;3.30;;
47483;SDS011;54076;50.322;18.650;2023-04-15T14:52:50;6.80;;;3.20;;
47483;SDS011;54076;50.322;18.650;2023-04-15T14:57:51;6.90;;;3.30;;
47483;SDS011;54076;50.322;18.650;2023-04-15T15:02:52;7.10;;;3.40;;
47483;SDS011;54076;50.322;18.650;2023-04-15T15:07:53;7.00;;;3.50;;
47483;SDS011;54076;50.322;18.650;2023-04-15T15:12:54;7.00;;;3.30;;
47483;SDS011;54076;50.322;18.650;2023-04-15T15:17:56;9.10;;;3.80;;
47483;SDS011;54076;50.322;18.650;2023-04-15T15:22:57;8.40;;;2.90;;
47483;SDS011;54076;50.322;18.650;2023-04-15T15:27:58;7.40;;;3.20;;
47483;SDS011;54076;50.322;18.650;2023-04-15T15:32:59;8.00;;;3.10;;
47483;SDS011;54076;50.322;18.650;2023-04-15T15:38:00;6.60;;;3.20;;
47483;SDS011;54076;50.322;18.650;2023-04-15T15:43:02;7.10;;;3.30;;
47483;SDS011;54076;50.322;18.650;2023-04-15T15:48:04;6.00;;;3.10;;
47483;SDS011;54076;50.322;18.650;2023-04-15T15:53:05;7.30;;;2.90;;
47483;SDS011;54076;50.322;18.650;2023-04-15T15:58:06;6.70;;;2.80;;
47483;SDS011;54076;50.322;18.650;2023-04-15T16:03:07;5.80;;;2.90;;
47483;SDS011;54076;50.322;18.650;2023-04-15T16:08:08;7.00;;;3.00;;
47483;SDS011;54076;50.322;18.650;2023-04-15T16:13:10;5.20;;;2.70;;
47483;SDS011;54076;50.322;18.650;2023-04-15T16:18:11;5.40;;;2.60;;
47483;SDS011;54076;50.322;18.650;2023-04-15T16:23:14;7.00;;;3.10;;
47483;SDS011;54076;50.322;18.650;2023-04-15T16:28:16;9.20;;;4.40;;
47483;SDS011;54076;50.322;18.650;2023-04-15T16:33:17;8.10;;;4.10;;
47483;SDS011;54076;50.322;18.650;2023-04-15T16:38:18;9.50;;;4.50;;
47483;SDS011;54076;50.322;18.650;2023-04-15T16:43:19;8.70;;;4.20;;
47483;SDS011;54076;50.322;18.650;2023-04-15T16:48:20;50.80;;;23.90;;
47483;SDS011;54076;50.322;18.650;2023-04-15T16:53:21;8.40;;;4.40;;
47483;SDS011;54076;50.322;18.650;2023-04-15T16:58:22;7.90;;;4.00;;
47483;SDS011;54076;50.322;18.650;2023-04-15T17:03:24;7.60;;;3.50;;
47483;SDS011;54076;50.322;18.650;2023-04-15T17:08:25;14.20;;;7.00;;
47483;SDS011;54076;50.322;18.650;2023-04-15T17:13:26;10.90;;;3.80;;
47483;SDS011;54076;50.322;18.650;2023-04-15T17:18:27;9.60;;;4.00;;
47483;SDS011;54076;50.322;18.650;2023-04-15T17:23:28;8.90;;;4.20;;
47483;SDS011;54076;50.322;18.650;2023-04-15T17:28:30;9.30;;;4.50;;
47483;SDS011;54076;50.322;18.650;2023-04-15T17:33:31;9.50;;;4.80;;
47483;SDS011;54076;50.322;18.650;2023-04-15T17:38:32;9.90;;;5.00;;
47483;SDS011;54076;50.322;18.650;2023-04-15T17:43:33;9.20;;;4.80;;
47483;SDS011;54076;50.322;18.650;2023-04-15T17:48:35;8.70;;;4.40;;
47483;SDS011;54076;50.322;18.650;2023-04-15T17:53:36;8.00;;;4.10;;
47483;SDS011;54076;50.322;18.650;2023-04-15T17:58:37;9.10;;;4.10;;
47483;SDS011;54076;50.322;18.650;2023-04-15T18:03:38;9.50;;;4.30;;
47483;SDS011;54076;50.322;18.650;2023-04-15T18:08:40;7.20;;;3.70;;
47483;SDS011;54076;50.322;18.650;2023-04-15T18:13:41;9.40;;;4.20;;
47483;SDS011;54076;50.322;18.650;2023-04-15T18:18:42;14.00;;;6.60;;
47483;SDS011;54076;50.322;18.650;2023-04-15T18:23:43;7.30;;;3.60;;
47483;SDS011;54076;50.322;18.650;2023-04-15T18:28:44;7.20;;;4.10;;
47483;SDS011;54076;50.322;18.650;2023-04-15T18:33:45;8.30;;;3.90;;
47483;SDS011;54076;50.322;18.650;2023-04-15T18:38:46;7.90;;;4.20;;
47483;SDS011;54076;50.322;18.650;2023-04-15T18:43:47;8.20;;;4.00;;
47483;SDS011;54076;50.322;18.650;2023-04-15T18:48:48;6.70;;;3.50;;
47483;SDS011;54076;50.322;18.650;2023-04-15T18:53:49;7.00;;;3.30;;
47483;SDS011;54076;50.322;18.650;2023-04-15T18:58:50;6.60;;;3.50;;
47483;SDS011;54076;50.322;18.650;2023-04-15T19:03:52;8.80;;;3.60;;
47483;SDS011;54076;50.322;18.650;2023-04-15T19:08:53;7.80;;;3.70;;
47483;SDS011;54076;50.322;18.650;2023-04-15T19:13:54;6.80;;;3.70;;
47483;SDS011;54076;50.322;18.650;2023-04-15T19:18:55;9.30;;;3.60;;
47483;SDS011;54076;50.322;18.650;2023-04-15T19:23:56;7.70;;;3.60;;
47483;SDS011;54076;50.322;18.650;2023-04-15T19:28:57;8.70;;;4.40;;
47483;SDS011;54076;50.322;18.650;2023-04-15T19:33:58;8.30;;;4.10;;
47483;SDS011;54076;50.322;18.650;2023-04-15T19:38:59;7.60;;;3.70;;
47483;SDS011;54076;50.322;18.650;2023-04-15T19:44:01;7.70;;;4.00;;
47483;SDS011;54076;50.322;18.650;2023-04-15T19:49:04;10.30;;;4.30;;
47483;SDS011;54076;50.322;18.650;2023-04-15T19:54:06;10.00;;;4.70;;
47483;SDS011;54076;50.322;18.650;2023-04-15T19:59:07;10.50;;;4.80;;
47483;SDS011;54076;50.322;18.650;2023-04-15T20:04:08;10.30;;;4.40;;
47483;SDS011;54076;50.322;18.650;2023-04-15T20:09:10;9.20;;;4.60;;
47483;SDS011;54076;50.322;18.650;2023-04-15T20:14:10;11.90;;;4.90;;
47483;SDS011;54076;50.322;18.650;2023-04-15T20:19:12;11.20;;;5.40;;
47483;SDS011;54076;50.322;18.650;2023-04-15T20:24:13;9.60;;;4.30;;
47483;SDS011;54076;50.322;18.650;2023-04-15T20:29:14;9.00;;;4.70;;
47483;SDS011;54076;50.322;18.650;2023-04-15T20:34:15;9.10;;;4.50;;
47483;SDS011;54076;50.322;18.650;2023-04-15T20:39:16;11.60;;;4.80;;
47483;SDS011;54076;50.322;18.650;2023-04-15T20:44:17;7.40;;;3.60;;
47483;SDS011;54076;50.322;18.650;2023-04-15T20:49:18;8.30;;;4.10;;
47483;SDS011;54076;50.322;18.650;2023-04-15T20:54:20;8.60;;;4.00;;
47483;SDS011;54076;50.322;18.650;2023-04-15T20:59:21;9.00;;;4.20;;
47483;SDS011;54076;50.322;18.650;2023-04-15T21:04:22;10.70;;;4.10;;
47483;SDS011;54076;50.322;18.650;2023-04-15T21:09:24;8.70;;;4.40;;
47483;SDS011;54076;50.322;18.650;2023-04-15T21:14:25;10.80;;;4.50;;
47483;SDS011;54076;50.322;18.650;2023-04-15T21:19:26;13.90;;;4.70;;
47483;SDS011;54076;50.322;18.650;2023-04-15T21:24:27;9.70;;;4.70;;
47483;SDS011;54076;50.322;18.650;2023-04-15T21:29:28;9.40;;;5.10;;
47483;SDS011;54076;50.322;18.650;2023-04-15T21:34:29;10.40;;;5.30;;
47483;SDS011;54076;50.322;18.650;2023-04-15T21:39:30;9.60;;;5.00;;
47483;SDS011;54076;50.322;18.650;2023-04-15T21:44:31;11.20;;;5.30;;
47483;SDS011;54076;50.322;18.650;2023-04-15T21:49:32;12.80;;;6.40;;
47483;SDS011;54076;50.322;18.650;2023-04-15T21:54:33;11.70;;;5.50;;
47483;SDS011;54076;50.322;18.650;2023-04-15T21:59:37;11.60;;;5.70;;
47483;SDS011;54076;50.322;18.650;2023-04-15T22:04:38;12.10;;;5.90;;
47483;SDS011;54076;50.322;18.650;2023-04-15T22:09:39;11.80;;;6.20;;
47483;SDS011;54076;50.322;18.650;2023-04-15T22:14:41;15.10;;;6.30;;
47483;SDS011;54076;50.322;18.650;2023-04-15T22:19:42;13.30;;;7.00;;
47483;SDS011;54076;50.322;18.650;2023-04-15T22:24:44;12.50;;;6.40;;
47483;SDS011;54076;50.322;18.650;2023-04-15T22:29:46;14.40;;;6.80;;
47483;SDS011;54076;50.322;18.650;2023-04-15T22:34:46;18.40;;;7.70;;
47483;SDS011;54076;50.322;18.650;2023-04-15T22:39:47;16.70;;;7.60;;
47483;SDS011;54076;50.322;18.650;2023-04-15T22:44:50;16.80;;;7.40;;
47483;SDS011;54076;50.322;18.650;2023-04-15T22:49:51;16.20;;;7.80;;
47483;SDS011;54076;50.322;18.650;2023-04-15T22:54:52;18.90;;;8.10;;
47483;SDS011;54076;50.322;18.650;2023-04-15T22:59:53;19.40;;;8.40;;
47483;SDS011;54076;50.322;18.650;2023-04-15T23:04:54;17.00;;;8.40;;
47483;SDS011;54076;50.322;18.650;2023-04-15T23:09:55;16.00;;;7.20;;
47483;SDS011;54076;50.322;18.650;2023-04-15T23:14:57;16.10;;;7.30;;
47483;SDS011;54076;50.322;18.650;2023-04-15T23:19:58;13.50;;;6.90;;
47483;SDS011;54076;50.322;18.650;2023-04-15T23:24:59;13.20;;;5.90;;
47483;SDS011;54076;50.322;18.650;2023-04-15T23:30:00;14.00;;;6.50;;
47483;SDS011;54076;50.322;18.650;2023-04-15T23:35:02;12.70;;;5.80;;
47483;SDS011;54076;50.322;18.650;2023-04-15T23:40:04;10.10;;;5.50;;
47483;SDS011;54076;50.322;18.650;2023-04-15T23:45:07;9.10;;;5.20;;
47483;SDS011;54076;50.322;18.650;2023-04-15T23:50:09;10.50;;;5.00;;
47483;SDS011;54076;50.322;18.650;2023-04-15T23:55:10;9.00;;;4.60;;
